createdAt,value
2017-09-25T00:00:32.981Z,12.70
2017-09-25T00:03:05.059Z,12.60
2017-09-25T00:05:36.131Z,12.60
2017-09-25T00:08:07.016Z,12.60
2017-09-25T00:10:37.651Z,12.70
2017-09-25T00:13:09.418Z,12.60
2017-09-25T00:15:41.064Z,12.60
2017-09-25T00:18:12.579Z,12.60
2017-09-25T00:20:44.250Z,12.50
2017-09-25T00:23:16.108Z,12.50
2017-09-25T00:25:47.155Z,12.50
2017-09-25T00:28:19.302Z,12.60
2017-09-25T00:30:50.951Z,12.60
2017-09-25T00:33:22.391Z,12.50
2017-09-25T00:35:53.589Z,12.50
2017-09-25T00:38:24.941Z,12.50
2017-09-25T00:40:55.693Z,12.50
2017-09-25T00:43:26.493Z,12.40
2017-09-25T00:45:58.096Z,12.40
2017-09-25T00:48:29.047Z,12.40
2017-09-25T00:50:59.936Z,12.40
2017-09-25T00:53:40.708Z,12.40
2017-09-25T00:56:11.859Z,12.40
2017-09-25T00:58:42.857Z,12.40
2017-09-25T01:01:15.299Z,12.40
2017-09-25T01:03:55.480Z,12.40
2017-09-25T01:06:29.275Z,12.40
2017-09-25T01:09:00.509Z,12.30
2017-09-25T01:11:31.610Z,12.40
2017-09-25T01:14:02.898Z,12.30
2017-09-25T01:16:33.840Z,12.30
2017-09-25T01:19:05.631Z,12.30
2017-09-25T01:21:36.933Z,12.20
2017-09-25T01:24:08.404Z,12.30
2017-09-25T01:26:40.764Z,12.20
2017-09-25T01:29:11.946Z,12.20
2017-09-25T01:31:43.160Z,12.20
2017-09-25T01:34:14.691Z,12.20
2017-09-25T01:36:45.843Z,12.20
2017-09-25T01:39:17.372Z,12.10
2017-09-25T01:41:48.459Z,12.10
2017-09-25T01:44:20.071Z,12.10
2017-09-25T01:46:51.201Z,12.10
2017-09-25T01:49:22.234Z,12.10
2017-09-25T01:51:53.322Z,12.10
2017-09-25T01:54:24.927Z,12.00
2017-09-25T01:56:55.373Z,12.00
2017-09-25T01:59:26.166Z,12.00
2017-09-25T02:01:58.002Z,12.00
2017-09-25T02:04:29.082Z,12.00
2017-09-25T02:06:59.835Z,12.00
2017-09-25T02:09:30.881Z,12.00
2017-09-25T02:12:01.836Z,11.90
2017-09-25T02:14:32.590Z,11.90
2017-09-25T02:17:03.565Z,11.90
2017-09-25T02:19:34.761Z,11.90
2017-09-25T02:22:05.780Z,11.90
2017-09-25T02:24:36.339Z,11.90
2017-09-25T02:27:07.411Z,11.90
2017-09-25T02:29:38.993Z,11.90
2017-09-25T02:32:09.733Z,11.90
2017-09-25T02:34:40.614Z,11.90
2017-09-25T02:37:11.470Z,11.90
2017-09-25T02:39:42.038Z,11.80
2017-09-25T02:42:12.515Z,11.80
2017-09-25T02:44:44.087Z,11.70
2017-09-25T02:47:14.896Z,11.70
2017-09-25T02:49:45.930Z,11.70
2017-09-25T02:52:17.575Z,11.70
2017-09-25T02:54:47.876Z,11.70
2017-09-25T02:57:19.125Z,11.70
2017-09-25T02:59:49.735Z,11.70
2017-09-25T03:02:20.687Z,11.70
2017-09-25T03:04:51.651Z,11.60
2017-09-25T03:07:22.144Z,11.60
2017-09-25T03:09:53.135Z,11.60
2017-09-25T03:12:24.796Z,11.60
2017-09-25T03:14:56.504Z,11.60
2017-09-25T03:17:27.261Z,11.60
2017-09-25T03:19:58.279Z,11.60
2017-09-25T03:22:29.439Z,11.60
2017-09-25T03:25:00.478Z,11.50
2017-09-25T03:27:31.236Z,11.60
2017-09-25T03:30:02.812Z,11.50
2017-09-25T03:32:33.646Z,11.50
2017-09-25T03:35:05.741Z,11.50
2017-09-25T03:37:36.533Z,11.50
2017-09-25T03:40:07.458Z,11.40
2017-09-25T03:42:38.316Z,11.40
2017-09-25T03:45:10.044Z,11.20
2017-09-25T03:47:41.325Z,11.20
2017-09-25T03:50:12.363Z,11.00
2017-09-25T03:52:44.024Z,11.00
2017-09-25T03:55:14.758Z,10.90
2017-09-25T03:57:46.330Z,10.90
2017-09-25T04:00:17.274Z,10.90
2017-09-25T04:02:48.252Z,11.00
2017-09-25T04:05:19.140Z,11.00
2017-09-25T04:07:49.823Z,11.00
2017-09-25T04:10:20.927Z,11.00
2017-09-25T04:12:52.069Z,10.90
2017-09-25T04:15:23.029Z,10.90
2017-09-25T04:17:53.928Z,10.90
2017-09-25T04:20:24.608Z,10.90
2017-09-25T04:22:55.979Z,10.90
2017-09-25T04:25:27.319Z,10.80
2017-09-25T04:27:58.613Z,10.80
2017-09-25T04:30:30.789Z,10.90
2017-09-25T04:33:01.452Z,10.80
2017-09-25T04:35:32.156Z,10.80
2017-09-25T04:38:03.037Z,10.70
2017-09-25T04:40:34.213Z,10.80
2017-09-25T04:43:04.542Z,10.80
2017-09-25T04:45:35.694Z,10.80
2017-09-25T04:48:06.671Z,10.80
2017-09-25T04:50:37.317Z,10.80
2017-09-25T04:53:08.044Z,10.70
2017-09-25T04:55:38.406Z,10.80
2017-09-25T04:58:09.204Z,10.80
2017-09-25T05:00:39.778Z,10.80
2017-09-25T05:03:10.320Z,10.80
2017-09-25T05:05:41.234Z,10.90
2017-09-25T05:08:13.104Z,11.00
2017-09-25T05:10:44.494Z,11.00
2017-09-25T05:13:15.273Z,10.90
2017-09-25T05:15:46.964Z,11.00
2017-09-25T05:18:17.824Z,11.00
2017-09-25T05:20:48.672Z,11.00
2017-09-25T05:23:21.457Z,11.00
2017-09-25T05:25:51.846Z,11.00
2017-09-25T05:28:22.733Z,10.90
2017-09-25T05:30:54.831Z,10.90
2017-09-25T05:33:25.608Z,10.90
2017-09-25T05:35:56.346Z,10.90
2017-09-25T05:38:26.897Z,10.80
2017-09-25T05:40:57.333Z,10.80
2017-09-25T05:43:28.187Z,10.80
2017-09-25T05:45:59.686Z,10.90
2017-09-25T05:48:31.011Z,10.80
2017-09-25T05:51:02.319Z,10.90
2017-09-25T05:53:33.224Z,10.90
2017-09-25T05:56:04.552Z,10.90
2017-09-25T05:58:35.617Z,10.90
2017-09-25T06:01:07.568Z,10.90
2017-09-25T06:03:38.971Z,11.10
2017-09-25T06:06:09.984Z,11.10
2017-09-25T06:08:40.874Z,11.20
2017-09-25T06:11:11.895Z,11.30
2017-09-25T06:13:42.574Z,11.30
2017-09-25T06:16:13.656Z,11.30
2017-09-25T06:18:44.585Z,11.30
2017-09-25T06:21:16.124Z,11.20
2017-09-25T06:23:48.069Z,11.30
2017-09-25T06:26:19.227Z,11.40
2017-09-25T06:28:50.244Z,11.40
2017-09-25T06:31:21.188Z,11.50
2017-09-25T06:33:51.946Z,11.60
2017-09-25T06:36:23.771Z,11.80
2017-09-25T06:38:54.680Z,11.90
2017-09-25T06:41:25.932Z,12.10
2017-09-25T06:43:56.799Z,12.40
2017-09-25T06:46:28.120Z,12.70
2017-09-25T06:48:59.161Z,12.90
2017-09-25T06:51:30.132Z,13.30
2017-09-25T06:54:02.045Z,13.50
2017-09-25T06:56:36.328Z,13.30
2017-09-25T06:59:09.135Z,12.90
2017-09-25T07:01:41.824Z,12.90
2017-09-25T07:04:13.320Z,12.80
2017-09-25T07:06:44.328Z,12.90
2017-09-25T07:09:15.430Z,13.00
2017-09-25T07:11:46.888Z,13.20
2017-09-25T07:14:18.238Z,13.20
2017-09-25T07:16:50.060Z,13.00
2017-09-25T07:19:21.431Z,13.20
2017-09-25T07:21:53.903Z,13.30
2017-09-25T07:24:24.424Z,13.30
2017-09-25T07:26:56.833Z,13.50
2017-09-25T07:29:27.536Z,13.50
2017-09-25T07:31:58.420Z,13.40
2017-09-25T07:34:29.704Z,13.40
2017-09-25T07:37:01.117Z,13.40
2017-09-25T07:39:33.616Z,13.40
2017-09-25T07:42:04.906Z,13.40
2017-09-25T07:44:36.677Z,13.40
2017-09-25T07:47:08.481Z,13.40
2017-09-25T07:49:40.338Z,13.50
2017-09-25T07:52:11.560Z,13.50
2017-09-25T07:54:42.703Z,13.30
2017-09-25T07:57:13.762Z,13.40
2017-09-25T07:59:45.661Z,13.50
2017-09-25T08:02:17.188Z,13.90
2017-09-25T08:04:48.961Z,13.80
2017-09-25T08:07:20.960Z,14.20
2017-09-25T08:09:52.333Z,15.20
2017-09-25T08:12:23.566Z,16.90
2017-09-25T08:14:54.308Z,17.80
2017-09-25T08:17:26.816Z,18.20
2017-09-25T08:19:57.893Z,18.20
2017-09-25T08:22:28.660Z,18.80
2017-09-25T08:25:01.481Z,18.60
2017-09-25T08:27:33.511Z,18.00
2017-09-25T08:30:05.171Z,18.00
2017-09-25T08:32:36.734Z,19.40
2017-09-25T08:35:08.191Z,20.70
2017-09-25T08:37:39.168Z,20.10
2017-09-25T08:40:10.350Z,19.40
2017-09-25T08:42:41.757Z,20.40
2017-09-25T08:45:12.733Z,20.80
2017-09-25T08:47:43.830Z,19.40
2017-09-25T08:50:15.407Z,18.60
2017-09-25T08:52:47.087Z,19.70
2017-09-25T08:55:18.618Z,21.10
2017-09-25T08:57:49.643Z,22.00
2017-09-25T09:00:20.833Z,23.20
2017-09-25T09:02:51.981Z,23.00
2017-09-25T09:05:22.952Z,22.80
2017-09-25T09:07:54.633Z,23.30
2017-09-25T09:10:25.944Z,22.40
2017-09-25T09:12:56.829Z,23.00
2017-09-25T09:15:28.021Z,23.10
2017-09-25T09:17:59.407Z,22.10
2017-09-25T09:20:30.357Z,22.10
2017-09-25T09:23:01.189Z,21.40
2017-09-25T09:25:32.458Z,20.00
2017-09-25T09:28:03.983Z,20.80
2017-09-25T09:30:35.774Z,21.00
2017-09-25T09:33:10.092Z,21.70
2017-09-25T09:35:41.860Z,23.00
2017-09-25T09:38:13.306Z,23.00
2017-09-25T09:40:44.652Z,23.30
2017-09-25T09:43:15.784Z,23.20
2017-09-25T09:45:46.309Z,22.60
2017-09-25T09:48:17.318Z,21.10
2017-09-25T09:50:48.528Z,20.80
2017-09-25T09:53:20.037Z,21.20
2017-09-25T09:55:50.999Z,21.70
2017-09-25T09:58:22.005Z,22.90
2017-09-25T10:00:54.198Z,23.40
2017-09-25T10:03:25.622Z,23.40
2017-09-25T10:05:57.461Z,24.10
2017-09-25T10:08:29.286Z,22.80
2017-09-25T10:11:00.283Z,22.80
2017-09-25T10:13:32.026Z,22.80
2017-09-25T10:16:03.179Z,23.30
2017-09-25T10:18:34.679Z,23.60
2017-09-25T10:21:06.252Z,22.30
2017-09-25T10:23:37.156Z,22.80
2017-09-25T10:26:08.556Z,22.80
2017-09-25T10:28:40.166Z,22.30
2017-09-25T10:31:11.688Z,22.30
2017-09-25T10:33:43.952Z,22.00
2017-09-25T10:36:14.741Z,22.00
2017-09-25T10:38:45.819Z,21.90
2017-09-25T10:41:16.970Z,23.10
2017-09-25T10:43:48.600Z,23.40
2017-09-25T10:46:19.811Z,23.40
2017-09-25T10:48:51.005Z,23.60
2017-09-25T10:51:21.979Z,23.80
2017-09-25T10:53:53.263Z,23.90
2017-09-25T10:56:25.059Z,22.50
2017-09-25T10:58:57.314Z,22.10
2017-09-25T11:01:29.019Z,22.10
2017-09-25T11:04:00.687Z,22.50
2017-09-25T11:06:31.604Z,22.60
2017-09-25T11:09:02.639Z,23.40
2017-09-25T11:11:33.771Z,24.20
2017-09-25T11:14:05.363Z,25.20
2017-09-25T11:16:38.024Z,24.50
2017-09-25T11:19:08.918Z,24.40
2017-09-25T11:21:40.349Z,24.20
2017-09-25T11:24:12.260Z,23.80
2017-09-25T11:26:43.672Z,23.70
2017-09-25T11:29:15.258Z,23.90
2017-09-25T11:31:46.660Z,23.10
2017-09-25T11:34:18.355Z,24.70
2017-09-25T11:36:51.015Z,24.70
2017-09-25T11:39:21.799Z,24.40
2017-09-25T11:41:53.610Z,24.20
2017-09-25T11:44:25.440Z,23.90
2017-09-25T11:46:56.607Z,24.50
2017-09-25T11:49:28.050Z,25.50
2017-09-25T11:51:59.195Z,26.00
2017-09-25T11:54:30.438Z,26.10
2017-09-25T11:57:00.952Z,25.60
2017-09-25T11:59:32.369Z,25.30
2017-09-25T12:02:06.145Z,26.10
2017-09-25T12:04:36.823Z,26.80
2017-09-25T12:07:09.076Z,25.50
2017-09-25T12:09:40.204Z,25.50
2017-09-25T12:12:10.891Z,25.40
2017-09-25T12:14:41.575Z,23.90
2017-09-25T12:17:12.593Z,24.70
2017-09-25T12:19:44.071Z,24.80
2017-09-25T12:22:15.218Z,23.90
2017-09-25T12:24:46.571Z,23.30
2017-09-25T12:27:17.333Z,23.40
2017-09-25T12:29:48.066Z,23.90
2017-09-25T12:32:19.791Z,23.50
2017-09-25T12:34:51.231Z,23.50
2017-09-25T12:37:22.218Z,24.50
2017-09-25T12:39:54.747Z,25.60
2017-09-25T12:42:25.615Z,25.60
2017-09-25T12:44:56.260Z,25.10
2017-09-25T12:47:27.754Z,23.60
2017-09-25T12:49:58.580Z,23.60
2017-09-25T12:55:01.309Z,25.00
2017-09-25T12:57:32.001Z,24.50
2017-09-25T13:00:02.743Z,24.30
2017-09-25T13:02:33.676Z,24.70
2017-09-25T13:05:05.262Z,24.40
2017-09-25T13:07:36.167Z,24.40
2017-09-25T13:10:07.177Z,23.40
2017-09-25T13:12:38.911Z,24.20
2017-09-25T13:15:10.012Z,24.20
2017-09-25T13:17:40.632Z,24.50
2017-09-25T13:20:11.736Z,24.40
2017-09-25T13:22:42.304Z,24.40
2017-09-25T13:25:13.102Z,25.00
2017-09-25T13:27:44.492Z,25.70
2017-09-25T13:30:15.373Z,25.70
2017-09-25T13:32:46.793Z,25.50
2017-09-25T13:35:17.870Z,24.90
2017-09-25T13:37:49.646Z,24.50
2017-09-25T13:40:20.673Z,24.30
2017-09-25T13:42:51.459Z,24.20
2017-09-25T13:45:22.084Z,23.00
2017-09-25T13:47:54.678Z,22.00
2017-09-25T13:50:25.674Z,21.90
2017-09-25T13:52:56.268Z,22.30
2017-09-25T13:55:26.879Z,22.80
2017-09-25T13:57:57.628Z,23.00
2017-09-25T14:03:03.537Z,24.80
2017-09-25T14:05:35.319Z,26.30
2017-09-25T14:08:07.772Z,26.30
2017-09-25T14:10:40.209Z,26.40
2017-09-25T14:13:10.868Z,26.40
2017-09-25T14:15:43.253Z,25.50
2017-09-25T14:18:14.559Z,25.50
2017-09-25T14:20:45.500Z,25.30
2017-09-25T14:23:17.468Z,24.90
2017-09-25T14:25:48.612Z,23.40
2017-09-25T14:28:19.856Z,23.70
2017-09-25T14:30:50.874Z,23.30
2017-09-25T14:33:21.819Z,22.30
2017-09-25T14:35:52.667Z,21.70
2017-09-25T14:38:25.147Z,22.40
2017-09-25T14:40:56.155Z,22.40
2017-09-25T14:43:26.845Z,22.20
2017-09-25T14:45:58.915Z,23.20
2017-09-25T14:48:30.336Z,23.20
2017-09-25T14:51:01.043Z,23.10
2017-09-25T14:53:32.063Z,22.90
2017-09-25T14:56:03.129Z,22.80
2017-09-25T14:58:34.526Z,22.20
2017-09-25T15:01:05.439Z,22.10
2017-09-25T15:03:36.533Z,22.00
2017-09-25T15:06:06.878Z,22.20
2017-09-25T15:08:38.249Z,21.60
2017-09-25T15:11:09.808Z,21.50
2017-09-25T15:13:40.732Z,21.80
2017-09-25T15:16:13.118Z,21.40
2017-09-25T15:18:44.242Z,21.40
2017-09-25T15:21:15.743Z,21.10
2017-09-25T15:23:46.474Z,21.10
2017-09-25T15:26:18.280Z,21.10
2017-09-25T15:28:49.232Z,21.10
2017-09-25T15:31:21.311Z,20.90
2017-09-25T15:33:52.835Z,20.90
2017-09-25T15:36:23.940Z,20.90
2017-09-25T15:38:54.916Z,20.80
2017-09-25T15:41:25.952Z,20.60
2017-09-25T15:43:56.805Z,20.60
2017-09-25T15:46:28.030Z,20.60
2017-09-25T15:48:59.664Z,20.20
2017-09-25T15:51:30.478Z,20.20
2017-09-25T15:54:02.121Z,20.30
2017-09-25T15:56:35.303Z,20.30
2017-09-25T15:59:06.111Z,20.30
2017-09-25T16:01:37.340Z,20.30
2017-09-25T16:04:08.354Z,20.30
2017-09-25T16:06:39.143Z,20.40
2017-09-25T16:09:10.543Z,20.30
2017-09-25T16:11:42.039Z,20.20
2017-09-25T16:14:13.021Z,20.20
2017-09-25T16:16:44.215Z,20.30
2017-09-25T16:19:15.345Z,19.90
2017-09-25T16:21:46.168Z,19.90
2017-09-25T16:24:17.102Z,19.80
2017-09-25T16:26:48.647Z,19.80
2017-09-25T16:29:19.473Z,19.80
2017-09-25T16:31:51.065Z,19.60
2017-09-25T16:34:21.912Z,19.60
2017-09-25T16:36:52.713Z,19.70
2017-09-25T16:39:24.079Z,19.80
2017-09-25T16:41:54.782Z,19.80
2017-09-25T16:44:26.832Z,19.80
2017-09-25T16:46:57.561Z,19.70
2017-09-25T16:49:28.964Z,19.70
2017-09-25T16:52:00.787Z,19.50
2017-09-25T16:54:32.588Z,19.40
2017-09-25T16:57:02.890Z,19.40
2017-09-25T16:59:33.418Z,19.40
2017-09-25T17:02:05.764Z,19.30
2017-09-25T17:04:38.207Z,19.10
2017-09-25T17:07:09.597Z,19.10
2017-09-25T17:09:40.857Z,19.00
2017-09-25T17:12:11.735Z,18.90
2017-09-25T17:14:42.749Z,18.80
2017-09-25T17:17:13.665Z,18.80
2017-09-25T17:19:44.737Z,18.60
2017-09-25T17:22:15.920Z,18.50
2017-09-25T17:24:47.516Z,18.40
2017-09-25T17:27:18.781Z,18.40
2017-09-25T17:29:49.798Z,18.40
2017-09-25T17:32:20.626Z,18.40
2017-09-25T17:34:51.510Z,18.30
2017-09-25T17:37:21.989Z,18.20
2017-09-25T17:39:53.736Z,18.10
2017-09-25T17:42:25.643Z,18.10
2017-09-25T17:44:56.504Z,18.00
2017-09-25T17:47:27.385Z,18.00
2017-09-25T17:49:57.681Z,18.00
2017-09-25T17:52:28.672Z,17.90
2017-09-25T17:55:00.911Z,17.90
2017-09-25T17:57:33.030Z,17.80
2017-09-25T18:00:04.185Z,17.80
2017-09-25T18:02:35.955Z,17.70
2017-09-25T18:05:06.557Z,17.70
2017-09-25T18:07:37.756Z,17.60
2017-09-25T18:10:09.348Z,17.50
2017-09-25T18:12:40.331Z,17.50
2017-09-25T18:15:11.942Z,17.50
2017-09-25T18:17:42.734Z,17.50
2017-09-25T18:20:14.456Z,17.40
2017-09-25T18:22:45.329Z,17.40
2017-09-25T18:25:16.564Z,17.40
2017-09-25T18:27:47.682Z,17.30
2017-09-25T18:30:18.676Z,17.20
2017-09-25T18:32:49.508Z,17.20
2017-09-25T18:35:20.328Z,17.00
2017-09-25T18:37:51.109Z,16.90
2017-09-25T18:40:21.952Z,16.90
2017-09-25T18:42:52.738Z,16.80
2017-09-25T18:45:24.303Z,16.70
2017-09-25T18:47:55.705Z,16.70
2017-09-25T18:50:26.908Z,16.60
2017-09-25T18:52:58.245Z,16.60
2017-09-25T18:55:29.084Z,16.50
2017-09-25T18:58:00.168Z,16.40
2017-09-25T19:00:30.696Z,16.40
2017-09-25T19:03:01.792Z,16.40
2017-09-25T19:05:32.728Z,16.30
2017-09-25T19:08:04.031Z,16.30
2017-09-25T19:10:35.731Z,16.20
2017-09-25T19:13:06.654Z,16.20
2017-09-25T19:15:38.609Z,16.10
2017-09-25T19:18:09.732Z,16.10
2017-09-25T19:20:41.339Z,16.10
2017-09-25T19:23:11.819Z,16.00
2017-09-25T19:25:43.493Z,16.00
2017-09-25T19:28:15.259Z,16.00
2017-09-25T19:30:46.870Z,15.90
2017-09-25T19:33:18.057Z,15.90
2017-09-25T19:35:50.645Z,15.80
2017-09-25T19:38:22.405Z,15.80
2017-09-25T19:40:53.249Z,15.80
2017-09-25T19:43:25.231Z,15.60
2017-09-25T19:45:55.819Z,15.60
2017-09-25T19:48:39.808Z,15.60
2017-09-25T19:51:15.775Z,15.50
2017-09-25T19:53:46.800Z,15.50
2017-09-25T19:56:18.077Z,15.50
2017-09-25T19:58:49.693Z,15.40
2017-09-25T20:01:21.040Z,15.40
2017-09-25T20:03:52.871Z,15.40
2017-09-25T20:06:24.235Z,15.30
2017-09-25T20:08:55.872Z,15.30
2017-09-25T20:11:29.193Z,15.20
2017-09-25T20:14:03.900Z,15.20
2017-09-25T20:16:40.232Z,15.20
2017-09-25T20:19:11.579Z,15.10
2017-09-25T20:21:43.338Z,15.00
2017-09-25T20:24:15.370Z,15.00
2017-09-25T20:26:46.083Z,15.00
2017-09-25T20:29:16.942Z,15.00
2017-09-25T20:31:47.352Z,15.00
2017-09-25T20:34:18.232Z,15.00
2017-09-25T20:36:49.997Z,14.90
2017-09-25T20:39:20.935Z,14.90
2017-09-25T20:41:54.062Z,14.80
2017-09-25T20:44:25.046Z,14.80
2017-09-25T20:46:55.867Z,14.80
2017-09-25T20:49:28.265Z,14.80
2017-09-25T20:52:00.232Z,14.70
2017-09-25T20:54:30.937Z,14.70
2017-09-25T20:57:02.459Z,14.70
2017-09-25T20:59:34.471Z,14.70
2017-09-25T21:02:06.704Z,14.70
2017-09-25T21:04:38.573Z,14.60
2017-09-25T21:07:09.783Z,14.60
2017-09-25T21:09:40.713Z,14.60
2017-09-25T21:12:11.666Z,14.60
2017-09-25T21:14:44.067Z,14.50
2017-09-25T21:17:14.984Z,14.50
2017-09-25T21:19:46.888Z,14.50
2017-09-25T21:22:19.354Z,14.50
2017-09-25T21:24:51.610Z,14.40
2017-09-25T21:27:27.154Z,14.40
2017-09-25T21:29:57.955Z,14.40
2017-09-25T21:32:29.236Z,14.40
2017-09-25T21:35:01.054Z,14.40
2017-09-25T21:37:32.879Z,14.40
2017-09-25T21:40:04.838Z,14.50
2017-09-25T21:42:35.806Z,14.50
2017-09-25T21:45:08.575Z,14.40
2017-09-25T21:47:40.658Z,14.40
2017-09-25T21:50:12.289Z,14.40
2017-09-25T21:52:43.409Z,14.30
2017-09-25T21:55:14.801Z,14.30
2017-09-25T21:57:46.030Z,14.30
2017-09-25T22:00:18.327Z,14.30
2017-09-25T22:02:49.808Z,14.30
2017-09-25T22:05:21.244Z,14.30
2017-09-25T22:07:52.016Z,14.30
2017-09-25T22:10:23.229Z,14.30
2017-09-25T22:12:53.901Z,14.30
2017-09-25T22:15:25.457Z,14.20
2017-09-25T22:17:57.640Z,14.20
2017-09-25T22:20:28.656Z,14.20
2017-09-25T22:22:59.899Z,14.10
2017-09-25T22:25:31.474Z,14.10
2017-09-25T22:28:02.937Z,14.10
2017-09-25T22:30:34.308Z,14.10
2017-09-25T22:33:04.969Z,14.10
2017-09-25T22:35:35.915Z,14.10
2017-09-25T22:38:07.384Z,14.00
2017-09-25T22:40:39.742Z,14.00
2017-09-25T22:43:13.565Z,14.00
2017-09-25T22:45:46.146Z,14.00
2017-09-25T22:48:17.919Z,14.00
2017-09-25T22:50:48.644Z,14.00
2017-09-25T22:53:20.361Z,14.00
2017-09-25T22:55:51.735Z,14.00
2017-09-25T22:58:23.077Z,14.00
2017-09-25T23:00:54.179Z,14.10
2017-09-25T23:03:28.905Z,14.10
2017-09-25T23:06:01.517Z,14.00
2017-09-25T23:08:32.570Z,14.00
2017-09-25T23:11:05.469Z,14.10
2017-09-25T23:13:37.324Z,14.00
2017-09-25T23:16:08.484Z,14.00
2017-09-25T23:18:39.527Z,14.00
2017-09-25T23:21:11.693Z,14.00
2017-09-25T23:23:42.422Z,14.00
2017-09-25T23:26:13.389Z,13.90
2017-09-25T23:28:44.579Z,13.90
2017-09-25T23:31:29.883Z,13.90
2017-09-25T23:34:01.576Z,13.80
2017-09-25T23:36:32.801Z,13.80
2017-09-25T23:39:04.308Z,13.80
2017-09-25T23:41:36.059Z,13.70
2017-09-25T23:44:07.302Z,13.70
2017-09-25T23:46:38.844Z,13.60
2017-09-25T23:49:10.051Z,13.60
2017-09-25T23:51:41.270Z,13.50
2017-09-25T23:54:13.998Z,13.50
2017-09-25T23:56:45.375Z,13.50
2017-09-25T23:59:16.364Z,13.50
